createdAt,value
2023-05-10T00:00:24.650Z,62.50
2023-05-10T00:02:51.532Z,62.50
2023-05-10T00:05:18.570Z,62.50
2023-05-10T00:07:48.009Z,62.50
2023-05-10T00:10:14.925Z,62.50
2023-05-10T00:12:43.002Z,62.50
2023-05-10T00:15:10.391Z,62.60
2023-05-10T00:17:37.431Z,62.50
2023-05-10T00:20:05.859Z,62.60
2023-05-10T00:22:33.384Z,62.60
2023-05-10T00:25:00.359Z,62.60
2023-05-10T00:27:27.306Z,62.50
2023-05-10T00:29:54.222Z,62.50
2023-05-10T00:32:21.768Z,62.50
2023-05-10T00:34:48.680Z,62.60
2023-05-10T00:37:15.470Z,62.50
2023-05-10T00:39:42.301Z,62.50
2023-05-10T00:42:09.043Z,62.60
2023-05-10T00:44:35.932Z,62.60
2023-05-10T00:47:02.722Z,62.60
2023-05-10T00:49:29.738Z,62.60
2023-05-10T00:51:56.774Z,62.50
2023-05-10T00:54:23.588Z,62.50
2023-05-10T00:56:52.694Z,62.50
2023-05-10T00:59:19.920Z,62.60
2023-05-10T01:01:47.316Z,62.50
2023-05-10T01:04:15.087Z,62.50
2023-05-10T01:06:43.012Z,62.60
2023-05-10T01:09:10.563Z,62.50
2023-05-10T01:11:39.597Z,62.50
2023-05-10T01:14:06.782Z,62.60
2023-05-10T01:16:36.552Z,62.60
2023-05-10T01:19:09.348Z,62.60
2023-05-10T01:21:50.488Z,62.60
2023-05-10T01:24:25.905Z,62.60
2023-05-10T01:27:17.481Z,62.60
2023-05-10T01:30:15.316Z,62.70
2023-05-10T01:32:51.638Z,62.70
2023-05-10T01:35:24.353Z,62.70
2023-05-10T01:38:17.274Z,62.70
2023-05-10T01:41:00.745Z,62.80
2023-05-10T01:43:32.226Z,62.80
2023-05-10T01:46:05.683Z,62.80
2023-05-10T01:48:33.264Z,62.90
2023-05-10T01:51:01.121Z,62.80
2023-05-10T01:53:28.601Z,62.80
2023-05-10T01:55:56.490Z,62.80
2023-05-10T01:58:32.688Z,62.90
2023-05-10T02:01:02.145Z,62.80
2023-05-10T02:03:30.021Z,62.80
2023-05-10T02:05:58.778Z,62.90
2023-05-10T02:08:26.257Z,62.80
2023-05-10T02:10:56.916Z,62.80
2023-05-10T02:13:25.639Z,62.80
2023-05-10T02:15:52.623Z,62.80
2023-05-10T02:18:19.680Z,62.80
2023-05-10T02:20:47.710Z,62.80
2023-05-10T02:23:17.925Z,62.80
2023-05-10T02:25:45.108Z,62.80
2023-05-10T02:28:13.038Z,62.80
2023-05-10T02:30:40.223Z,62.80
2023-05-10T02:33:07.418Z,62.80
2023-05-10T02:35:35.272Z,62.80
2023-05-10T02:38:02.567Z,62.80
2023-05-10T02:40:30.845Z,62.80
2023-05-10T02:42:58.173Z,62.80
2023-05-10T02:45:29.144Z,62.80
2023-05-10T02:47:56.433Z,62.80
2023-05-10T02:50:23.750Z,62.80
2023-05-10T02:52:57.446Z,62.80
2023-05-10T02:55:27.068Z,62.80
2023-05-10T02:57:59.480Z,62.80
2023-05-10T03:00:26.782Z,62.80
2023-05-10T03:02:53.772Z,62.80
2023-05-10T03:05:21.153Z,62.80
2023-05-10T03:07:48.748Z,62.80
2023-05-10T03:10:15.791Z,62.80
2023-05-10T03:13:01.301Z,62.80
2023-05-10T03:15:47.555Z,62.80
2023-05-10T03:18:22.734Z,62.80
2023-05-10T03:20:51.992Z,62.80
2023-05-10T03:23:31.591Z,62.80
2023-05-10T03:25:59.188Z,62.80
2023-05-10T03:28:26.359Z,62.80
2023-05-10T03:30:55.105Z,62.80
2023-05-10T03:33:22.051Z,62.80
2023-05-10T03:35:49.181Z,62.80
2023-05-10T03:38:16.497Z,62.80
2023-05-10T03:40:43.353Z,62.80
2023-05-10T03:43:10.282Z,62.80
2023-05-10T03:45:37.224Z,62.80
2023-05-10T03:48:04.758Z,62.80
2023-05-10T03:50:31.679Z,62.70
2023-05-10T03:52:58.601Z,62.80
2023-05-10T03:55:25.526Z,62.70
2023-05-10T03:57:52.407Z,62.70
2023-05-10T04:00:19.501Z,62.70
2023-05-10T04:02:50.514Z,62.70
2023-05-10T04:05:19.671Z,62.80
2023-05-10T04:07:48.034Z,62.80
2023-05-10T04:10:15.045Z,62.70
2023-05-10T04:12:42.033Z,62.70
2023-05-10T04:15:09.466Z,62.70
2023-05-10T04:17:36.250Z,62.70
2023-05-10T04:20:03.081Z,62.70
2023-05-10T04:22:30.835Z,62.70
2023-05-10T04:24:57.562Z,62.70
2023-05-10T04:27:24.339Z,62.70
2023-05-10T04:29:51.575Z,62.70
2023-05-10T04:32:18.353Z,62.70
2023-05-10T04:34:45.231Z,62.70
2023-05-10T04:37:11.934Z,62.70
2023-05-10T04:39:40.302Z,62.70
2023-05-10T04:42:09.056Z,62.70
2023-05-10T04:44:36.394Z,62.70
2023-05-10T04:47:04.070Z,62.70
2023-05-10T04:49:31.125Z,62.70
2023-05-10T04:51:57.875Z,62.60
2023-05-10T04:54:24.832Z,62.70
2023-05-10T04:56:51.627Z,62.70
2023-05-10T04:59:18.408Z,62.70
2023-05-10T05:01:45.164Z,62.70
2023-05-10T05:04:11.982Z,62.70
2023-05-10T05:06:38.725Z,62.70
2023-05-10T05:09:05.452Z,62.70
2023-05-10T05:11:32.214Z,62.70
2023-05-10T05:14:00.240Z,62.70
2023-05-10T05:16:28.894Z,62.70
2023-05-10T05:18:56.832Z,62.70
2023-05-10T05:21:23.670Z,62.70
2023-05-10T05:23:50.490Z,62.70
2023-05-10T05:26:17.338Z,62.70
2023-05-10T05:28:44.354Z,62.70
2023-05-10T05:31:11.282Z,62.70
2023-05-10T05:33:38.545Z,62.70
2023-05-10T05:36:06.537Z,62.70
2023-05-10T05:38:33.415Z,62.70
2023-05-10T05:41:00.232Z,62.70
2023-05-10T05:43:27.030Z,62.70
2023-05-10T05:45:55.010Z,62.70
2023-05-10T05:48:22.012Z,62.70
2023-05-10T05:50:48.823Z,62.70
2023-05-10T05:53:15.733Z,62.70
2023-05-10T05:55:52.998Z,62.70
2023-05-10T05:58:19.953Z,62.70
2023-05-10T06:00:46.871Z,62.70
2023-05-10T06:03:13.830Z,62.70
2023-05-10T06:05:40.782Z,62.80
2023-05-10T06:08:07.600Z,62.80
2023-05-10T06:10:34.573Z,62.80
2023-05-10T06:13:01.407Z,62.70
2023-05-10T06:15:28.459Z,62.90
2023-05-10T06:17:55.346Z,62.80
2023-05-10T06:20:22.144Z,63.00
2023-05-10T06:22:48.921Z,62.90
2023-05-10T06:25:16.048Z,63.20
2023-05-10T06:27:43.041Z,63.20
2023-05-10T06:30:13.248Z,63.10
2023-05-10T06:32:40.707Z,63.10
2023-05-10T06:35:08.779Z,63.20
2023-05-10T06:37:35.615Z,63.30
2023-05-10T06:40:03.337Z,63.20
2023-05-10T06:42:30.168Z,63.30
2023-05-10T06:44:56.918Z,63.50
2023-05-10T06:47:23.713Z,63.30
2023-05-10T06:49:50.551Z,63.30
2023-05-10T06:52:17.307Z,62.90
2023-05-10T06:54:44.071Z,62.80
2023-05-10T06:57:23.461Z,62.70
2023-05-10T06:59:58.166Z,62.90
2023-05-10T07:02:24.919Z,63.00
2023-05-10T07:04:53.016Z,62.90
2023-05-10T07:07:20.283Z,63.10
2023-05-10T07:09:47.134Z,63.20
2023-05-10T07:12:15.179Z,63.20
2023-05-10T07:14:43.228Z,63.20
2023-05-10T07:17:10.964Z,63.10
2023-05-10T07:19:38.185Z,63.30
2023-05-10T07:22:05.120Z,63.40
2023-05-10T07:24:33.085Z,63.40
2023-05-10T07:26:59.845Z,63.50
2023-05-10T07:29:26.881Z,63.60
2023-05-10T07:31:55.282Z,63.60
2023-05-10T07:34:23.245Z,63.40
2023-05-10T07:36:50.016Z,63.30
2023-05-10T07:39:26.461Z,63.20
2023-05-10T07:41:54.525Z,63.40
2023-05-10T07:44:21.466Z,63.50
2023-05-10T07:46:48.717Z,63.50
2023-05-10T07:49:15.603Z,63.40
2023-05-10T07:51:43.457Z,63.50
2023-05-10T07:54:10.372Z,63.40
2023-05-10T07:56:37.371Z,63.40
2023-05-10T07:59:05.248Z,63.50
2023-05-10T08:01:33.500Z,63.50
2023-05-10T08:04:01.320Z,63.40
2023-05-10T08:06:29.173Z,63.30
2023-05-10T08:08:56.534Z,63.50
2023-05-10T08:11:23.685Z,63.50
2023-05-10T08:13:52.061Z,63.70
2023-05-10T08:16:19.592Z,63.80
2023-05-10T08:18:48.041Z,63.80
2023-05-10T08:21:16.033Z,63.90
2023-05-10T08:23:44.883Z,64.00
2023-05-10T08:26:12.103Z,64.20
2023-05-10T08:28:39.252Z,64.20
2023-05-10T08:31:07.048Z,64.30
2023-05-10T08:33:33.989Z,64.30
2023-05-10T08:36:00.979Z,64.30
2023-05-10T08:38:28.185Z,64.30
2023-05-10T08:40:59.508Z,64.40
2023-05-10T08:43:31.114Z,64.40
2023-05-10T08:46:04.278Z,64.50
2023-05-10T08:48:32.265Z,64.40
2023-05-10T08:51:01.059Z,64.40
2023-05-10T08:53:28.459Z,64.30
2023-05-10T08:55:56.650Z,64.30
2023-05-10T08:58:23.662Z,64.30
2023-05-10T09:00:53.881Z,64.20
2023-05-10T09:03:20.860Z,64.10
2023-05-10T09:05:47.945Z,64.10
2023-05-10T09:08:19.422Z,64.10
2023-05-10T09:10:48.623Z,64.00
2023-05-10T09:13:16.286Z,64.00
2023-05-10T09:15:44.175Z,64.00
2023-05-10T09:18:12.319Z,64.20
2023-05-10T09:20:39.219Z,64.10
2023-05-10T09:23:06.756Z,63.90
2023-05-10T09:25:36.740Z,63.80
2023-05-10T09:28:07.619Z,63.70
2023-05-10T09:30:34.551Z,63.60
2023-05-10T09:33:01.817Z,63.50
2023-05-10T09:35:31.175Z,63.40
2023-05-10T09:38:02.198Z,63.40
2023-05-10T09:40:29.886Z,63.30
2023-05-10T09:42:59.255Z,63.20
2023-05-10T09:45:28.318Z,63.10
2023-05-10T09:47:55.760Z,63.00
2023-05-10T09:50:23.332Z,62.90
2023-05-10T09:52:54.144Z,62.80
2023-05-10T09:55:22.949Z,62.80
2023-05-10T09:57:51.059Z,62.80
2023-05-10T10:00:21.636Z,62.80
2023-05-10T10:02:56.467Z,62.80
2023-05-10T10:05:32.990Z,62.80
2023-05-10T10:08:01.074Z,62.80
2023-05-10T10:10:28.845Z,62.80
2023-05-10T10:12:56.434Z,62.80
2023-05-10T10:15:24.265Z,62.80
2023-05-10T10:17:53.048Z,62.80
2023-05-10T10:20:21.391Z,62.30
2023-05-10T10:22:48.824Z,62.10
2023-05-10T10:25:20.154Z,61.80
2023-05-10T10:27:53.159Z,61.60
2023-05-10T10:30:31.411Z,61.30
2023-05-10T10:33:28.869Z,61.30
2023-05-10T10:35:56.948Z,61.40
2023-05-10T10:38:23.914Z,61.80
2023-05-10T10:41:03.795Z,61.80
2023-05-10T10:43:31.275Z,61.70
2023-05-10T10:46:18.545Z,61.80
2023-05-10T10:48:50.188Z,61.70
2023-05-10T10:51:17.078Z,61.70
2023-05-10T10:53:44.321Z,61.70
2023-05-10T10:56:14.593Z,61.70
2023-05-10T10:58:41.859Z,61.60
2023-05-10T11:01:16.841Z,61.50
2023-05-10T11:04:03.782Z,61.30
2023-05-10T11:06:35.333Z,61.20
2023-05-10T11:09:08.939Z,61.50
2023-05-10T11:11:36.890Z,61.70
2023-05-10T11:14:06.303Z,61.70
2023-05-10T11:16:45.620Z,61.70
2023-05-10T11:19:14.355Z,61.70
2023-05-10T11:21:52.421Z,62.00
2023-05-10T11:24:23.600Z,61.90
2023-05-10T11:26:54.728Z,62.10
2023-05-10T11:29:21.821Z,62.20
2023-05-10T11:31:51.034Z,62.00
2023-05-10T11:34:28.366Z,62.50
2023-05-10T11:36:56.488Z,62.80
2023-05-10T11:39:30.646Z,63.50
2023-05-10T11:41:58.742Z,63.80
2023-05-10T11:44:33.728Z,64.10
2023-05-10T11:47:04.279Z,64.10
2023-05-10T11:49:31.412Z,64.00
2023-05-10T11:52:08.707Z,64.10
2023-05-10T11:54:38.316Z,64.10
2023-05-10T11:57:05.342Z,64.10
2023-05-10T11:59:32.262Z,63.90
2023-05-10T12:01:59.296Z,63.20
2023-05-10T12:04:26.458Z,62.50
2023-05-10T12:06:53.600Z,62.00
2023-05-10T12:09:31.451Z,61.90
2023-05-10T12:12:06.930Z,61.80
2023-05-10T12:14:36.182Z,62.00
2023-05-10T12:17:03.080Z,62.30
2023-05-10T12:19:38.678Z,62.60
2023-05-10T12:22:07.053Z,63.00
2023-05-10T12:24:39.283Z,63.20
2023-05-10T12:27:09.159Z,63.30
2023-05-10T12:29:36.628Z,63.00
2023-05-10T12:32:03.575Z,62.20
2023-05-10T12:34:38.083Z,61.80
2023-05-10T12:37:04.944Z,61.60
2023-05-10T12:39:45.767Z,61.60
2023-05-10T12:42:13.123Z,61.40
2023-05-10T12:44:41.137Z,61.70
2023-05-10T12:47:08.126Z,61.80
2023-05-10T12:49:35.295Z,62.20
2023-05-10T12:52:02.387Z,62.40
2023-05-10T12:54:29.303Z,62.40
2023-05-10T12:56:56.343Z,62.50
2023-05-10T12:59:23.813Z,62.60
2023-05-10T13:01:51.548Z,62.60
2023-05-10T13:04:18.280Z,63.00
2023-05-10T13:06:45.450Z,63.10
2023-05-10T13:09:12.393Z,63.20
2023-05-10T13:11:39.370Z,63.40
2023-05-10T13:14:06.304Z,63.40
2023-05-10T13:16:33.357Z,63.50
2023-05-10T13:19:00.386Z,63.60
2023-05-10T13:21:27.646Z,63.50
2023-05-10T13:23:56.629Z,63.60
2023-05-10T13:26:23.581Z,63.60
2023-05-10T13:28:52.652Z,63.70
2023-05-10T13:31:20.461Z,63.70
2023-05-10T13:33:47.215Z,63.70
2023-05-10T13:36:14.210Z,63.90
2023-05-10T13:38:40.976Z,63.90
2023-05-10T13:41:07.776Z,63.90
2023-05-10T13:43:34.589Z,63.90
2023-05-10T13:46:01.555Z,64.00
2023-05-10T13:48:28.378Z,64.10
2023-05-10T13:50:55.260Z,64.00
2023-05-10T13:53:22.208Z,64.30
2023-05-10T13:55:49.194Z,64.30
2023-05-10T13:58:15.996Z,64.30
2023-05-10T14:00:42.761Z,64.30
2023-05-10T14:03:11.924Z,64.30
2023-05-10T14:05:39.266Z,64.40
2023-05-10T14:08:06.209Z,64.50
2023-05-10T14:10:33.050Z,64.70
2023-05-10T14:12:59.991Z,64.90
2023-05-10T14:15:26.971Z,65.00
2023-05-10T14:17:53.733Z,65.10
2023-05-10T14:20:20.658Z,65.10
2023-05-10T14:22:47.494Z,65.20
2023-05-10T14:25:15.487Z,65.30
2023-05-10T14:27:42.771Z,65.30
2023-05-10T14:30:10.132Z,65.10
2023-05-10T14:32:37.816Z,64.90
2023-05-10T14:35:05.575Z,64.10
2023-05-10T14:37:33.766Z,63.30
2023-05-10T14:40:00.526Z,62.60
2023-05-10T14:42:27.835Z,61.90
2023-05-10T14:44:55.416Z,60.10
2023-05-10T14:47:22.283Z,58.60
2023-05-10T14:49:49.025Z,57.40
2023-05-10T14:52:16.028Z,56.50
2023-05-10T14:54:43.181Z,55.90
2023-05-10T14:57:09.950Z,55.10
2023-05-10T14:59:36.742Z,55.10
2023-05-10T15:02:05.200Z,55.00
2023-05-10T15:04:32.472Z,55.20
2023-05-10T15:07:00.488Z,54.90
2023-05-10T15:09:28.699Z,54.90
2023-05-10T15:11:56.148Z,55.00
2023-05-10T15:14:24.023Z,55.20
2023-05-10T15:16:51.161Z,55.50
2023-05-10T15:19:18.368Z,56.00
2023-05-10T15:21:46.125Z,56.40
2023-05-10T15:24:13.080Z,56.60
2023-05-10T15:26:39.791Z,56.60
2023-05-10T15:29:06.618Z,56.60
2023-05-10T15:31:36.116Z,56.70
2023-05-10T15:34:03.123Z,56.70
2023-05-10T15:36:30.147Z,56.80
2023-05-10T15:38:57.354Z,56.90
2023-05-10T15:41:24.911Z,56.90
2023-05-10T15:43:51.777Z,57.00
2023-05-10T15:46:18.626Z,57.10
2023-05-10T15:48:45.577Z,57.30
2023-05-10T15:51:12.530Z,57.30
2023-05-10T15:53:46.677Z,57.50
2023-05-10T15:56:19.815Z,57.60
2023-05-10T15:58:46.871Z,57.80
2023-05-10T16:01:13.776Z,57.80
2023-05-10T16:03:40.627Z,57.90
2023-05-10T16:06:07.490Z,58.10
2023-05-10T16:08:34.426Z,58.20
2023-05-10T16:11:01.568Z,58.30
2023-05-10T16:13:29.078Z,58.60
2023-05-10T16:15:57.307Z,58.90
2023-05-10T16:18:24.367Z,59.00
2023-05-10T16:20:51.368Z,59.10
2023-05-10T16:23:18.410Z,59.40
2023-05-10T16:25:45.614Z,59.50
2023-05-10T16:28:13.227Z,59.60
2023-05-10T16:30:40.299Z,59.70
2023-05-10T16:33:07.653Z,59.70
2023-05-10T16:35:34.729Z,59.80
2023-05-10T16:38:01.779Z,59.70
2023-05-10T16:40:28.684Z,59.60
2023-05-10T16:42:55.478Z,59.40
2023-05-10T16:45:22.317Z,59.50
2023-05-10T16:47:49.194Z,59.90
2023-05-10T16:50:17.123Z,60.00
2023-05-10T16:52:44.500Z,60.10
2023-05-10T16:55:11.395Z,60.20
2023-05-10T16:57:38.192Z,60.30
2023-05-10T17:00:07.551Z,60.60
2023-05-10T17:02:34.460Z,60.80
2023-05-10T17:05:01.436Z,60.90
2023-05-10T17:07:29.467Z,61.10
2023-05-10T17:09:56.653Z,61.30
2023-05-10T17:12:23.487Z,61.50
2023-05-10T17:14:50.334Z,61.60
2023-05-10T17:17:17.273Z,61.70
2023-05-10T17:19:47.300Z,61.70
2023-05-10T17:22:14.340Z,61.70
2023-05-10T17:24:41.095Z,61.80
2023-05-10T17:27:08.255Z,61.90
2023-05-10T17:29:35.083Z,61.90
2023-05-10T17:32:02.090Z,62.00
2023-05-10T17:34:28.891Z,62.60
2023-05-10T17:36:55.677Z,62.00
2023-05-10T17:39:22.509Z,62.00
2023-05-10T17:41:49.205Z,62.00
2023-05-10T17:44:16.050Z,62.00
2023-05-10T17:46:43.445Z,62.00
2023-05-10T17:49:10.551Z,62.20
2023-05-10T17:51:37.327Z,62.10
2023-05-10T17:54:04.141Z,62.10
2023-05-10T17:56:30.866Z,62.30
2023-05-10T17:58:57.692Z,62.30
2023-05-10T18:01:24.515Z,62.30
2023-05-10T18:03:51.882Z,62.20
2023-05-10T18:06:18.754Z,62.10
2023-05-10T18:08:45.506Z,62.10
2023-05-10T18:11:12.235Z,62.20
2023-05-10T18:13:39.119Z,62.20
2023-05-10T18:16:08.687Z,62.30
2023-05-10T18:18:35.856Z,62.30
2023-05-10T18:21:03.706Z,62.30
2023-05-10T18:23:30.561Z,62.40
2023-05-10T18:25:57.796Z,62.40
2023-05-10T18:28:24.626Z,62.50
2023-05-10T18:30:51.767Z,62.60
2023-05-10T18:33:18.945Z,62.50
2023-05-10T18:35:46.303Z,62.70
2023-05-10T18:38:13.805Z,62.80
2023-05-10T18:40:42.006Z,62.80
2023-05-10T18:43:09.011Z,62.80
2023-05-10T18:45:35.761Z,62.90
2023-05-10T18:48:02.996Z,62.90
2023-05-10T18:50:29.830Z,63.10
2023-05-10T18:52:56.650Z,63.10
2023-05-10T18:55:25.787Z,63.20
2023-05-10T18:57:52.525Z,63.10
2023-05-10T19:00:20.402Z,63.30
2023-05-10T19:02:47.774Z,63.50
2023-05-10T19:05:15.469Z,63.60
2023-05-10T19:07:43.907Z,63.60
2023-05-10T19:10:12.833Z,63.60
2023-05-10T19:12:41.724Z,63.20
2023-05-10T19:15:09.079Z,63.10
2023-05-10T19:17:36.905Z,62.90
2023-05-10T19:20:09.160Z,63.10
2023-05-10T19:22:54.090Z,63.20
2023-05-10T19:25:21.778Z,63.20
2023-05-10T19:27:48.499Z,63.20
2023-05-10T19:30:15.301Z,63.30
2023-05-10T19:32:44.249Z,63.30
2023-05-10T19:35:12.691Z,63.40
2023-05-10T19:37:39.544Z,63.40
2023-05-10T19:40:07.035Z,63.40
2023-05-10T19:42:33.740Z,63.50
2023-05-10T19:45:00.906Z,63.50
2023-05-10T19:47:27.698Z,63.50
2023-05-10T19:49:54.426Z,63.70
2023-05-10T19:52:21.215Z,63.70
2023-05-10T19:54:48.010Z,63.70
2023-05-10T19:57:14.837Z,63.70
2023-05-10T19:59:41.610Z,63.80
2023-05-10T20:02:08.612Z,63.80
2023-05-10T20:04:35.552Z,63.80
2023-05-10T20:07:02.475Z,63.90
2023-05-10T20:09:29.259Z,63.90
2023-05-10T20:11:55.978Z,64.00
2023-05-10T20:14:22.720Z,64.00
2023-05-10T20:16:49.507Z,64.00
2023-05-10T20:19:17.214Z,64.10
2023-05-10T20:21:43.988Z,64.10
2023-05-10T20:24:10.819Z,64.10
2023-05-10T20:26:37.535Z,64.20
2023-05-10T20:29:04.290Z,64.20
2023-05-10T20:31:31.113Z,64.20
2023-05-10T20:33:58.089Z,64.30
2023-05-10T20:36:25.167Z,64.30
2023-05-10T20:38:52.086Z,64.30
2023-05-10T20:41:18.851Z,64.30
2023-05-10T20:43:45.749Z,64.40
2023-05-10T20:46:12.642Z,64.40
2023-05-10T20:48:39.422Z,64.40
2023-05-10T20:51:06.220Z,64.50
2023-05-10T20:53:33.017Z,64.50
2023-05-10T20:55:59.834Z,64.50
2023-05-10T20:58:26.803Z,64.50
2023-05-10T21:00:53.659Z,64.60
2023-05-10T21:03:20.415Z,64.60
2023-05-10T21:05:47.289Z,64.60
2023-05-10T21:08:14.140Z,64.60
2023-05-10T21:10:40.881Z,64.60
2023-05-10T21:13:07.637Z,64.70
2023-05-10T21:15:34.416Z,65.30
2023-05-10T21:18:01.513Z,64.70
2023-05-10T21:20:29.327Z,64.70
2023-05-10T21:22:56.137Z,64.70
2023-05-10T21:25:23.272Z,64.80
2023-05-10T21:27:50.041Z,64.80
2023-05-10T21:30:17.546Z,64.80
2023-05-10T21:32:44.512Z,64.80
2023-05-10T21:35:11.261Z,64.90
2023-05-10T21:37:38.087Z,64.80
2023-05-10T21:40:05.791Z,65.00
2023-05-10T21:42:32.579Z,64.90
2023-05-10T21:44:59.359Z,64.90
2023-05-10T21:47:26.074Z,64.90
2023-05-10T21:49:52.778Z,64.90
2023-05-10T21:52:19.591Z,64.90
2023-05-10T21:54:46.392Z,64.80
2023-05-10T21:57:13.166Z,64.90
2023-05-10T21:59:40.226Z,64.90
2023-05-10T22:02:07.442Z,64.90
2023-05-10T22:04:34.835Z,65.00
2023-05-10T22:07:01.766Z,65.00
2023-05-10T22:09:28.576Z,64.90
2023-05-10T22:11:55.422Z,65.00
2023-05-10T22:14:23.023Z,65.00
2023-05-10T22:16:49.908Z,65.00
2023-05-10T22:19:16.692Z,65.00
2023-05-10T22:21:43.537Z,65.10
2023-05-10T22:24:10.325Z,65.00
2023-05-10T22:26:37.057Z,65.10
2023-05-10T22:29:04.311Z,65.10
2023-05-10T22:31:31.599Z,65.10
2023-05-10T22:33:58.487Z,65.10
2023-05-10T22:36:25.269Z,65.10
2023-05-10T22:38:52.042Z,65.20
2023-05-10T22:41:18.958Z,65.10
2023-05-10T22:43:46.148Z,65.10
2023-05-10T22:46:13.355Z,65.20
2023-05-10T22:48:40.312Z,65.20
2023-05-10T22:51:07.435Z,65.20
2023-05-10T22:53:34.423Z,65.10
2023-05-10T22:56:01.559Z,65.20
2023-05-10T22:58:28.652Z,65.20
2023-05-10T23:00:55.604Z,65.20
2023-05-10T23:03:22.649Z,65.20
2023-05-10T23:05:49.583Z,65.20
2023-05-10T23:08:16.485Z,65.20
2023-05-10T23:10:43.458Z,65.20
2023-05-10T23:13:10.491Z,65.20
2023-05-10T23:15:37.394Z,65.20
2023-05-10T23:18:05.899Z,65.20
2023-05-10T23:20:33.146Z,65.20
2023-05-10T23:23:00.032Z,65.20
2023-05-10T23:25:26.810Z,65.20
2023-05-10T23:27:53.690Z,65.20
2023-05-10T23:30:20.473Z,65.20
2023-05-10T23:32:47.370Z,65.20
2023-05-10T23:35:14.129Z,65.20
2023-05-10T23:37:42.259Z,65.20
2023-05-10T23:40:09.625Z,65.20
2023-05-10T23:42:36.544Z,65.20
2023-05-10T23:45:03.645Z,65.20
2023-05-10T23:47:30.590Z,65.30
2023-05-10T23:49:57.568Z,65.20
2023-05-10T23:52:25.163Z,65.30
2023-05-10T23:54:52.526Z,65.90
2023-05-10T23:57:19.757Z,65.30
2023-05-10T23:59:46.665Z,65.20
